createdAt,value
2022-08-05T00:01:48.792Z,12.50
2022-08-05T00:04:55.579Z,7.85
2022-08-05T00:08:01.599Z,8.38
2022-08-05T00:11:30.270Z,8.70
2022-08-05T00:14:33.922Z,8.90
2022-08-05T00:17:38.667Z,10.70
2022-08-05T00:20:44.862Z,14.27
2022-08-05T00:24:04.998Z,12.88
2022-08-05T00:27:14.107Z,8.25
2022-08-05T00:30:20.067Z,6.50
2022-08-05T00:34:56.660Z,7.80
2022-08-05T00:37:11.666Z,11.88
2022-08-05T00:40:26.960Z,10.80
2022-08-05T00:43:46.590Z,8.70
2022-08-05T00:46:54.121Z,9.40
2022-08-05T00:50:05.987Z,8.82
2022-08-05T00:56:33.834Z,14.07
2022-08-05T00:59:44.643Z,10.95
2022-08-05T01:02:50.165Z,9.80
2022-08-05T01:05:54.501Z,9.32
2022-08-05T01:09:00.254Z,10.70
2022-08-05T01:12:18.826Z,15.88
2022-08-05T01:15:35.656Z,8.73
2022-08-05T01:20:00.681Z,15.07
2022-08-05T01:23:22.890Z,9.45
2022-08-05T01:27:00.984Z,15.50
2022-08-05T01:30:34.048Z,10.82
2022-08-05T01:33:49.156Z,14.02
2022-08-05T01:37:03.982Z,9.57
2022-08-05T01:40:10.923Z,14.38
2022-08-05T01:43:22.206Z,14.18
2022-08-05T01:46:43.032Z,12.00
2022-08-05T01:50:01.809Z,12.38
2022-08-05T01:53:10.879Z,8.85
2022-08-05T01:58:10.721Z,8.70
2022-08-05T01:59:47.250Z,12.30
2022-08-05T02:02:59.813Z,5.75
2022-08-05T02:06:33.316Z,13.75
2022-08-05T02:09:33.023Z,11.80
2022-08-05T02:12:54.543Z,12.15
2022-08-05T02:16:06.762Z,9.68
2022-08-05T02:19:34.446Z,8.02
2022-08-05T02:22:44.820Z,14.23
2022-08-05T02:25:53.265Z,8.85
2022-08-05T02:28:58.611Z,6.88
2022-08-05T02:32:05.145Z,11.63
2022-08-05T02:35:27.663Z,5.57
2022-08-05T02:38:35.095Z,6.47
2022-08-05T02:41:43.405Z,5.18
2022-08-05T02:45:06.123Z,6.53
2022-08-05T02:48:12.888Z,4.97
2022-08-05T02:51:19.380Z,6.50
2022-08-05T02:54:34.928Z,4.22
2022-08-05T02:58:19.949Z,4.72
2022-08-05T03:01:05.848Z,4.75
2022-08-05T03:04:16.101Z,3.20
2022-08-05T03:07:59.359Z,3.95
2022-08-05T03:11:01.044Z,5.43
2022-08-05T03:14:09.966Z,3.95
2022-08-05T03:17:16.782Z,4.50
2022-08-05T03:20:19.872Z,4.23
2022-08-05T03:23:45.879Z,4.30
2022-08-05T03:26:49.589Z,3.38
2022-08-05T03:30:08.555Z,8.20
2022-08-05T03:33:12.523Z,6.13
2022-08-05T03:36:16.979Z,3.55
2022-08-05T03:39:59.145Z,4.32
2022-08-05T03:43:58.240Z,4.53
2022-08-05T03:46:29.797Z,4.88
2022-08-05T03:49:51.993Z,3.55
2022-08-05T03:55:34.573Z,5.78
2022-08-05T03:56:37.581Z,6.22
2022-08-05T03:59:54.445Z,4.07
2022-08-05T04:03:04.318Z,6.93
2022-08-05T04:06:09.198Z,8.13
2022-08-05T04:09:14.137Z,5.70
2022-08-05T04:12:25.213Z,4.60
2022-08-05T04:15:32.873Z,4.70
2022-08-05T04:18:37.300Z,4.95
2022-08-05T04:22:05.819Z,6.72
2022-08-05T04:25:07.384Z,6.53
2022-08-05T04:28:17.284Z,7.15
2022-08-05T04:31:20.972Z,6.93
2022-08-05T04:34:32.465Z,7.05
2022-08-05T04:38:00.561Z,5.05
2022-08-05T04:41:18.694Z,5.47
2022-08-05T04:44:29.243Z,4.05
2022-08-05T04:47:38.727Z,7.78
2022-08-05T04:51:02.437Z,7.70
2022-08-05T04:54:07.041Z,5.60
2022-08-05T04:57:20.136Z,7.53
2022-08-05T05:00:25.526Z,6.00
2022-08-05T05:03:28.648Z,6.03
2022-08-05T05:06:49.320Z,7.32
2022-08-05T05:10:04.305Z,6.28
2022-08-05T05:13:07.572Z,3.22
2022-08-05T05:16:12.471Z,10.30
2022-08-05T05:19:23.457Z,4.72
2022-08-05T05:22:30.210Z,9.35
2022-08-05T05:25:40.910Z,5.15
2022-08-05T05:28:44.750Z,8.05
2022-08-05T05:31:49.572Z,6.57
2022-08-05T05:34:54.425Z,8.23
2022-08-05T05:38:01.562Z,4.45
2022-08-05T05:41:07.702Z,3.83
2022-08-05T05:44:36.984Z,4.80
2022-08-05T05:48:08.142Z,4.68
2022-08-05T05:51:15.803Z,4.40
2022-08-05T05:54:19.606Z,5.70
2022-08-05T05:57:23.396Z,5.82
2022-08-05T06:00:27.637Z,3.83
2022-08-05T06:03:53.624Z,5.38
2022-08-05T06:07:01.416Z,3.78
2022-08-05T06:10:10.002Z,7.13
2022-08-05T06:13:13.555Z,6.65
2022-08-05T06:16:28.979Z,2.67
2022-08-05T06:19:36.433Z,3.42
2022-08-05T06:22:40.704Z,5.60
2022-08-05T06:26:13.909Z,5.30
2022-08-05T06:29:43.162Z,6.32
2022-08-05T06:32:31.926Z,4.63
2022-08-05T06:36:04.164Z,7.30
2022-08-05T06:39:00.695Z,4.55
2022-08-05T06:42:04.386Z,5.13
2022-08-05T06:45:09.662Z,5.72
2022-08-05T06:48:55.304Z,9.32
2022-08-05T06:51:49.647Z,4.75
2022-08-05T06:54:53.412Z,5.00
2022-08-05T06:58:03.070Z,4.50
2022-08-05T07:01:20.742Z,2.58
2022-08-05T07:04:24.348Z,6.07
2022-08-05T07:08:10.708Z,4.47
2022-08-05T07:11:15.282Z,4.28
2022-08-05T07:14:37.514Z,4.63
2022-08-05T07:18:02.277Z,6.25
2022-08-05T07:21:07.897Z,6.20
2022-08-05T07:24:14.734Z,5.20
2022-08-05T07:27:17.958Z,3.22
2022-08-05T07:30:28.230Z,2.00
2022-08-05T07:33:37.233Z,7.05
2022-08-05T07:36:40.670Z,6.93
2022-08-05T07:40:04.759Z,5.80
2022-08-05T07:43:20.266Z,2.45
2022-08-05T07:46:26.088Z,5.88
2022-08-05T07:49:29.536Z,2.53
2022-08-05T07:52:32.733Z,2.17
2022-08-05T07:56:04.938Z,3.67
2022-08-05T08:02:03.764Z,2.42
2022-08-05T08:05:08.829Z,4.30
2022-08-05T08:08:15.534Z,3.58
2022-08-05T08:14:31.002Z,2.50
2022-08-05T08:17:35.380Z,1.97
2022-08-05T08:21:00.312Z,11.35
2022-08-05T08:24:05.645Z,3.95
2022-08-05T08:27:11.906Z,4.60
2022-08-05T08:30:30.075Z,5.55
2022-08-05T08:33:40.824Z,5.20
2022-08-05T08:36:47.361Z,5.10
2022-08-05T08:40:29.773Z,4.93
2022-08-05T08:45:23.433Z,2.58
2022-08-05T08:47:47.590Z,3.85
2022-08-05T08:50:52.065Z,2.50
2022-08-05T08:53:52.506Z,4.70
2022-08-05T08:57:00.005Z,7.85
2022-08-05T09:00:06.373Z,3.85
2022-08-05T09:03:11.263Z,4.50
2022-08-05T09:06:17.168Z,4.68
2022-08-05T09:09:23.502Z,2.25
2022-08-05T09:12:30.166Z,5.27
2022-08-05T09:15:36.994Z,4.97
2022-08-05T09:18:42.886Z,5.20
2022-08-05T09:22:22.912Z,2.67
2022-08-05T09:25:13.478Z,5.55
2022-08-05T09:28:23.324Z,8.85
2022-08-05T09:32:42.204Z,2.83
2022-08-05T09:34:53.873Z,4.25
2022-08-05T09:38:16.772Z,3.33
2022-08-05T09:41:21.696Z,2.83
2022-08-05T09:44:40.345Z,3.47
2022-08-05T09:47:55.475Z,2.47
2022-08-05T09:51:03.127Z,2.22
2022-08-05T09:54:08.582Z,2.67
2022-08-05T09:57:35.251Z,4.13
2022-08-05T10:00:55.207Z,2.97
2022-08-05T10:04:10.135Z,5.05
2022-08-05T10:07:20.873Z,1.20
2022-08-05T10:10:50.369Z,6.25
2022-08-05T10:13:58.711Z,3.15
2022-08-05T10:17:37.979Z,3.72
2022-08-05T10:20:47.867Z,4.38
2022-08-05T10:24:17.755Z,2.45
2022-08-05T10:27:22.043Z,2.63
2022-08-05T10:32:47.440Z,5.22
2022-08-05T10:33:54.238Z,4.13
2022-08-05T10:36:59.918Z,4.22
2022-08-05T10:40:35.476Z,5.00
2022-08-05T10:43:51.944Z,3.78
2022-08-05T10:46:57.559Z,4.68
2022-08-05T10:50:31.834Z,4.85
2022-08-05T10:53:45.430Z,4.97
2022-08-05T10:56:52.969Z,3.42
2022-08-05T11:00:20.218Z,4.40
2022-08-05T11:03:26.921Z,4.50
2022-08-05T11:06:30.864Z,3.45
2022-08-05T11:09:48.618Z,2.78
2022-08-05T11:12:54.917Z,2.88
2022-08-05T11:16:23.310Z,2.95
2022-08-05T11:20:17.546Z,4.88
2022-08-05T11:24:05.352Z,2.88
2022-08-05T11:27:51.655Z,10.23
2022-08-05T11:31:57.768Z,4.80
2022-08-05T11:34:54.436Z,5.32
2022-08-05T11:38:30.851Z,3.67
2022-08-05T11:41:58.250Z,5.25
2022-08-05T11:44:54.408Z,5.25
2022-08-05T11:47:58.658Z,5.75
2022-08-05T11:51:03.147Z,4.13
2022-08-05T11:54:07.067Z,3.95
2022-08-05T11:57:25.516Z,4.05
2022-08-05T12:00:38.115Z,2.28
2022-08-05T12:03:56.085Z,7.15
2022-08-05T12:07:01.922Z,4.25
2022-08-05T12:10:09.442Z,2.17
2022-08-05T12:13:28.020Z,6.57
2022-08-05T12:16:45.132Z,2.63
2022-08-05T12:20:26.059Z,10.88
2022-08-05T12:23:16.930Z,2.78
2022-08-05T12:26:21.186Z,5.30
2022-08-05T12:29:29.071Z,5.75
2022-08-05T12:32:51.121Z,3.90
2022-08-05T12:35:56.416Z,3.57
2022-08-05T12:39:00.286Z,3.35
2022-08-05T12:42:08.863Z,3.85
2022-08-05T12:45:13.754Z,4.57
2022-08-05T12:48:32.317Z,3.33
2022-08-05T12:52:12.660Z,2.58
2022-08-05T12:55:22.590Z,7.65
2022-08-05T12:58:49.515Z,4.05
2022-08-05T13:02:07.504Z,3.25
2022-08-05T13:05:14.384Z,3.25
2022-08-05T13:08:19.505Z,2.50
2022-08-05T13:12:02.701Z,4.45
2022-08-05T13:15:06.854Z,2.58
2022-08-05T13:18:12.535Z,2.35
2022-08-05T13:21:28.311Z,2.53
2022-08-05T13:24:57.218Z,5.35
2022-08-05T13:28:01.433Z,4.30
2022-08-05T13:31:11.096Z,2.15
2022-08-05T13:34:21.508Z,3.00
2022-08-05T13:37:45.630Z,7.63
2022-08-05T13:40:59.373Z,3.33
2022-08-05T13:44:04.563Z,3.58
2022-08-05T13:47:09.377Z,5.47
2022-08-05T13:50:16.546Z,3.67
2022-08-05T13:53:56.392Z,3.58
2022-08-05T13:56:59.622Z,3.83
2022-08-05T14:00:04.290Z,2.63
2022-08-05T14:03:27.545Z,5.55
2022-08-05T14:06:32.942Z,4.10
2022-08-05T14:09:37.657Z,10.05
2022-08-05T14:12:49.953Z,2.80
2022-08-05T14:16:04.490Z,5.22
2022-08-05T14:19:09.707Z,3.22
2022-08-05T14:22:13.109Z,3.13
2022-08-05T14:25:21.424Z,3.70
2022-08-05T14:28:26.246Z,3.78
2022-08-05T14:32:03.778Z,3.15
2022-08-05T14:34:53.833Z,3.92
2022-08-05T14:38:01.121Z,4.55
2022-08-05T14:41:07.878Z,3.75
2022-08-05T14:44:20.346Z,3.85
2022-08-05T14:48:02.947Z,3.30
2022-08-05T14:50:48.740Z,6.30
2022-08-05T14:54:27.428Z,1.52
2022-08-05T14:57:18.239Z,2.22
2022-08-05T15:00:21.481Z,2.55
2022-08-05T15:03:38.877Z,1.60
2022-08-05T15:06:42.334Z,1.63
2022-08-05T15:09:56.619Z,3.67
2022-08-05T15:13:03.857Z,2.22
2022-08-05T15:16:08.121Z,1.70
2022-08-05T15:19:23.753Z,2.50
2022-08-05T15:22:28.174Z,3.80
2022-08-05T15:25:40.929Z,2.90
2022-08-05T15:28:57.875Z,1.95
2022-08-05T15:32:02.253Z,1.70
2022-08-05T15:35:45.203Z,1.88
2022-08-05T15:38:48.766Z,3.45
2022-08-05T15:41:55.999Z,1.97
2022-08-05T15:45:03.280Z,5.25
2022-08-05T15:48:09.902Z,2.85
2022-08-05T15:52:13.061Z,6.03
2022-08-05T15:55:00.075Z,2.80
2022-08-05T15:58:03.166Z,2.85
2022-08-05T16:01:16.381Z,6.70
2022-08-05T16:04:20.615Z,4.60
2022-08-05T16:07:29.562Z,3.97
2022-08-05T16:10:32.935Z,1.88
2022-08-05T16:13:36.137Z,1.13
2022-08-05T16:16:40.606Z,1.83
2022-08-05T16:20:04.986Z,3.97
2022-08-05T16:23:08.523Z,4.97
2022-08-05T16:26:12.864Z,7.15
2022-08-05T16:29:16.859Z,3.30
2022-08-05T16:32:29.602Z,6.97
2022-08-05T16:35:41.925Z,5.30
2022-08-05T16:38:54.712Z,6.97
2022-08-05T16:42:14.697Z,3.45
2022-08-05T16:46:07.052Z,2.25
2022-08-05T16:48:45.666Z,1.40
2022-08-05T16:51:51.370Z,1.25
2022-08-05T16:54:58.107Z,1.20
2022-08-05T16:58:03.527Z,1.58
2022-08-05T17:01:12.760Z,1.33
2022-08-05T17:04:18.683Z,6.00
2022-08-05T17:07:39.378Z,11.45
2022-08-05T17:10:45.541Z,8.85
2022-08-05T17:13:48.644Z,7.70
2022-08-05T17:16:53.838Z,7.10
2022-08-05T17:19:58.367Z,4.15
2022-08-05T17:23:01.458Z,3.58
2022-08-05T17:26:05.922Z,2.67
2022-08-05T17:29:10.411Z,7.10
2022-08-05T17:32:16.681Z,3.78
2022-08-05T17:35:22.610Z,12.00
2022-08-05T17:38:25.820Z,7.93
2022-08-05T17:42:18.158Z,19.33
2022-08-05T17:44:52.948Z,21.48
2022-08-05T17:47:56.570Z,10.43
2022-08-05T17:51:01.087Z,91.40
2022-08-05T17:54:05.050Z,91.57
2022-08-05T18:00:16.220Z,20.15
2022-08-05T18:06:45.740Z,19.25
2022-08-05T18:09:59.415Z,16.17
2022-08-05T18:13:07.551Z,12.95
2022-08-05T18:16:15.306Z,7.53
2022-08-05T18:19:25.976Z,10.65
2022-08-05T18:22:36.342Z,5.32
2022-08-05T18:29:02.518Z,2.38
2022-08-05T18:32:06.901Z,1.73
2022-08-05T18:35:16.968Z,2.45
2022-08-05T18:38:25.940Z,3.45
2022-08-05T18:41:56.361Z,2.53
2022-08-05T18:44:56.530Z,3.00
2022-08-05T18:47:59.960Z,2.72
2022-08-05T18:52:04.810Z,6.32
2022-08-05T18:54:45.902Z,18.67
2022-08-05T18:57:53.518Z,20.38
2022-08-05T19:00:57.861Z,21.25
2022-08-05T19:04:01.008Z,12.70
2022-08-05T19:07:09.394Z,9.77
2022-08-05T19:10:13.895Z,11.25
2022-08-05T19:13:29.263Z,6.53
2022-08-05T19:16:35.311Z,12.77
2022-08-05T19:19:49.705Z,9.93
2022-08-05T19:22:52.967Z,11.90
2022-08-05T19:26:01.753Z,20.67
2022-08-05T19:29:07.195Z,8.35
2022-08-05T19:32:11.337Z,5.25
2022-08-05T19:35:15.552Z,3.55
2022-08-05T19:38:26.434Z,2.97
2022-08-05T19:41:58.149Z,10.38
2022-08-05T19:44:55.212Z,12.75
2022-08-05T19:47:58.861Z,6.38
2022-08-05T19:51:02.003Z,9.03
2022-08-05T19:54:21.860Z,15.50
2022-08-05T19:57:52.100Z,19.23
2022-08-05T20:00:56.403Z,4.40
2022-08-05T20:04:01.617Z,4.68
2022-08-05T20:07:10.384Z,2.53
2022-08-05T20:10:19.432Z,2.05
2022-08-05T20:13:54.862Z,2.80
2022-08-05T20:16:50.666Z,2.65
2022-08-05T20:19:56.738Z,1.13
2022-08-05T20:23:03.979Z,3.00
2022-08-05T20:26:07.701Z,6.25
2022-08-05T20:29:27.283Z,1.70
2022-08-05T20:32:31.787Z,2.60
2022-08-05T20:35:40.682Z,6.90
2022-08-05T20:38:54.654Z,2.10
2022-08-05T20:42:01.245Z,1.33
2022-08-05T20:45:08.838Z,2.42
2022-08-05T20:48:12.122Z,2.45
2022-08-05T20:51:19.773Z,3.17
2022-08-05T20:54:25.238Z,5.88
2022-08-05T20:57:43.281Z,4.47
2022-08-05T21:00:54.214Z,5.45
2022-08-05T21:03:58.000Z,1.92
2022-08-05T21:07:01.277Z,2.23
2022-08-05T21:10:09.318Z,2.27
2022-08-05T21:13:26.430Z,2.58
2022-08-05T21:16:41.706Z,1.67
2022-08-05T21:19:47.750Z,1.58
2022-08-05T21:22:53.610Z,4.18
2022-08-05T21:25:58.759Z,0.47
2022-08-05T21:29:03.513Z,1.42
2022-08-05T21:32:08.893Z,1.05
2022-08-05T21:35:18.326Z,1.75
2022-08-05T21:38:36.386Z,1.60
2022-08-05T21:41:52.373Z,2.60
2022-08-05T21:44:56.198Z,8.43
2022-08-05T21:48:01.234Z,2.33
2022-08-05T21:51:04.402Z,0.80
2022-08-05T21:54:30.920Z,2.45
2022-08-05T21:57:34.428Z,2.45
2022-08-05T22:00:38.847Z,2.25
2022-08-05T22:03:48.481Z,2.90
2022-08-05T22:06:54.812Z,2.03
2022-08-05T22:16:00.268Z,1.73
2022-08-05T22:19:15.154Z,4.60
2022-08-05T22:22:31.175Z,0.55
2022-08-05T22:26:09.922Z,1.23
2022-08-05T22:29:15.490Z,1.55
2022-08-05T22:32:20.183Z,2.25
2022-08-05T22:35:47.748Z,3.20
2022-08-05T22:38:50.722Z,2.03
2022-08-05T22:42:10.353Z,1.23
2022-08-05T22:45:15.066Z,1.35
2022-08-05T22:48:22.155Z,2.40
2022-08-05T22:52:04.579Z,1.08
2022-08-05T22:54:55.194Z,3.13
2022-08-05T22:57:58.381Z,3.40
2022-08-05T23:01:01.471Z,3.15
2022-08-05T23:04:05.494Z,4.30
2022-08-05T23:07:11.410Z,2.38
2022-08-05T23:10:19.594Z,2.70
2022-08-05T23:13:22.943Z,1.48
2022-08-05T23:16:40.394Z,5.97
2022-08-05T23:19:55.965Z,2.15
2022-08-05T23:23:05.973Z,3.17
2022-08-05T23:26:11.703Z,3.38
2022-08-05T23:29:15.688Z,3.00
2022-08-05T23:32:22.739Z,2.40
2022-08-05T23:35:28.555Z,3.58
2022-08-05T23:39:55.088Z,3.22
2022-08-05T23:42:59.585Z,2.78
2022-08-05T23:46:02.690Z,4.57
2022-08-05T23:49:16.814Z,6.18
2022-08-05T23:52:36.186Z,3.28
2022-08-05T23:55:53.393Z,1.73
2022-08-05T23:58:58.693Z,2.63
